Time;durP1;ratioP1;P1;durP2;ratioP2;P2;SDS_P1;SDS_P2;PMS_P1;PMS_P2;Temp;Humidity;BMP_temperature;BMP_pressure;BME280_temperature;BME280_humidity;BME280_pressure;Samples;Min_cycle;Max_cycle;Signal;HPM_P1;HPM_P2
2022/10/13 00:01:20;;;;;;;149.20;15.30;;;;;;;14.88;100.00;96871.13;4965111;28;20101;-38
2022/10/13 00:03:49;;;;;;;136.60;16.65;;;;;;;14.70;100.00;96863.28;4967418;28;20086;-40
2022/10/13 00:06:20;;;;;;;109.70;14.57;;;;;;;15.12;100.00;96862.41;4971432;28;20088;-41
2022/10/13 00:08:49;;;;;;;64.85;12.93;;;;;;;14.99;100.00;96875.31;4966616;28;20074;-39
2022/10/13 00:11:19;;;;;;;69.15;12.88;;;;;;;14.42;100.00;96881.22;4969304;28;20086;-43
2022/10/13 00:13:49;;;;;;;66.82;12.93;;;;;;;14.56;100.00;96875.34;4970163;28;20085;-41
2022/10/13 00:16:19;;;;;;;76.00;14.77;;;;;;;15.02;100.00;96872.34;4968061;28;20500;-41
2022/10/13 00:18:48;;;;;;;57.40;13.40;;;;;;;14.59;100.00;96871.50;4970883;28;20865;-42
2022/10/13 00:21:20;;;;;;;40.08;13.15;;;;;;;14.83;100.00;96863.66;4970432;28;20090;-46
2022/10/13 00:23:49;;;;;;;61.60;13.07;;;;;;;14.54;100.00;96876.47;4967744;28;20477;-42
2022/10/13 00:26:17;;;;;;;44.33;12.98;;;;;;;14.27;100.00;96880.13;4968596;28;20542;-47
2022/10/13 00:28:46;;;;;;;42.30;12.35;;;;;;;14.67;100.00;96868.91;4976013;28;20448;-41
2022/10/13 00:31:21;;;;;;;43.03;12.20;;;;;;;14.49;100.00;96869.78;4965771;28;20082;-42
2022/10/13 00:33:49;;;;;;;37.45;13.05;;;;;;;14.79;100.00;96867.59;4969443;28;20078;-43
2022/10/13 00:36:18;;;;;;;45.15;12.80;;;;;;;14.63;100.00;96867.56;4968715;28;20089;-42
2022/10/13 00:38:48;;;;;;;52.88;12.65;;;;;;;15.05;100.00;96869.34;4972574;28;20082;-40
2022/10/13 00:41:16;;;;;;;14.98;11.65;;;;;;;15.17;100.00;96873.34;4972383;28;20075;-43
2022/10/13 00:43:51;;;;;;;30.08;11.77;;;;;;;15.24;100.00;96861.06;4967739;28;20685;-41
2022/10/13 00:46:19;;;;;;;24.15;12.63;;;;;;;15.06;100.00;96865.69;4970488;28;20529;-40
2022/10/13 00:48:49;;;;;;;17.48;11.82;;;;;;;15.11;100.00;96863.41;4972018;28;20105;-41
2022/10/13 00:51:20;;;;;;;20.10;12.30;;;;;;;15.08;100.00;96864.53;4971191;28;20082;-44
2022/10/13 00:53:50;;;;;;;23.20;12.93;;;;;;;15.08;100.00;96867.19;4970732;28;20089;-44
2022/10/13 00:56:19;;;;;;;20.45;12.43;;;;;;;15.05;100.00;96861.38;4969701;28;20086;-44
2022/10/13 00:58:48;;;;;;;33.22;13.27;;;;;;;14.84;100.00;96867.13;4968244;28;20085;-43
2022/10/13 01:01:16;;;;;;;25.75;12.95;;;;;;;15.00;100.00;96864.50;4962648;28;20605;-42
2022/10/13 01:03:45;;;;;;;38.10;12.30;;;;;;;14.99;100.00;96870.00;4967900;28;20085;-47
2022/10/13 01:06:13;;;;;;;37.22;12.63;;;;;;;15.11;100.00;96863.41;4964455;28;20089;-45
2022/10/13 01:08:42;;;;;;;60.35;13.57;;;;;;;14.94;100.00;96873.97;4970976;28;20093;-47
2022/10/13 01:11:25;;;;;;;35.20;12.73;;;;;;;15.09;100.00;96871.50;4971756;28;20086;-44
2022/10/13 01:13:58;;;;;;;59.75;14.18;;;;;;;14.68;100.00;96867.91;4967140;28;20108;-42
2022/10/13 01:16:32;;;;;;;53.13;12.77;;;;;;;14.48;100.00;96864.63;4971958;28;20067;-41
2022/10/13 01:19:14;;;;;;;32.88;12.88;;;;;;;14.89;100.00;96865.66;4972046;28;20082;-44
2022/10/13 01:21:45;;;;;;;32.17;12.40;;;;;;;15.20;100.00;96870.38;4971473;28;20090;-43
2022/10/13 01:24:44;;;;;;;23.98;12.13;;;;;;;15.22;100.00;96873.72;4964484;28;20070;-41
2022/10/13 01:27:45;;;;;;;31.33;13.50;;;;;;;15.32;100.00;96866.41;4966147;28;20086;-42
2022/10/13 01:30:17;;;;;;;25.27;12.75;;;;;;;15.18;100.00;96869.72;4956545;28;20093;-48
2022/10/13 01:32:57;;;;;;;29.60;13.20;;;;;;;14.38;100.00;96862.13;4959380;28;20087;-47
2022/10/13 01:35:33;;;;;;;25.63;13.37;;;;;;;14.87;100.00;96869.47;4971212;28;20587;-43
2022/10/13 01:38:06;;;;;;;28.85;14.63;;;;;;;14.73;100.00;96870.94;4972839;28;20093;-40
2022/10/13 01:40:39;;;;;;;25.30;14.07;;;;;;;14.09;100.00;96870.41;4966384;28;20074;-42
2022/10/13 01:43:11;;;;;;;27.75;14.38;;;;;;;14.69;100.00;96867.75;4966927;28;20078;-39
2022/10/13 01:45:46;;;;;;;28.15;14.05;;;;;;;14.08;100.00;96867.91;4966936;28;20472;-43
2022/10/13 01:48:15;;;;;;;36.80;14.63;;;;;;;14.30;100.00;96864.72;4971898;28;20090;-39
2022/10/13 01:50:44;;;;;;;25.52;13.93;;;;;;;14.47;100.00;96863.81;4969954;28;20572;-44
2022/10/13 01:53:14;;;;;;;24.83;15.00;;;;;;;14.62;100.00;96864.06;4973675;28;20097;-42
2022/10/13 01:55:49;;;;;;;38.63;14.65;;;;;;;14.54;100.00;96858.72;4969321;28;20089;-42
2022/10/13 01:58:18;;;;;;;43.10;14.82;;;;;;;13.88;100.00;96862.81;4965627;28;20083;-41
2022/10/13 02:01:03;;;;;;;69.25;15.45;;;;;;;13.93;100.00;96859.69;4967274;28;20098;-45
2022/10/13 02:03:38;;;;;;;37.63;14.25;;;;;;;14.39;100.00;96858.47;4969556;28;20513;-41
2022/10/13 02:06:13;;;;;;;57.97;15.55;;;;;;;14.17;100.00;96865.13;4969741;28;20062;-40
2022/10/13 02:08:45;;;;;;;65.05;14.88;;;;;;;13.93;100.00;96864.97;4963307;28;20078;-44
2022/10/13 02:11:17;;;;;;;60.55;14.65;;;;;;;14.14;100.00;96864.59;4968482;28;20467;-45
2022/10/13 02:13:53;;;;;;;43.45;12.90;;;;;;;14.40;100.00;96862.78;4968294;28;20078;-44
2022/10/13 02:16:22;;;;;;;42.53;12.90;;;;;;;14.25;100.00;96865.19;4965165;28;20078;-39
2022/10/13 02:18:51;;;;;;;33.33;11.95;;;;;;;14.06;100.00;96864.56;4970518;28;20097;-42
2022/10/13 02:21:19;;;;;;;33.67;11.85;;;;;;;13.58;100.00;96858.75;4968905;28;20568;-44
2022/10/13 02:23:47;;;;;;;34.47;10.73;;;;;;;13.68;100.00;96859.50;4969839;28;20086;-42
2022/10/13 02:26:16;;;;;;;18.52;10.98;;;;;;;13.95;100.00;96863.84;4969630;28;20094;-42
2022/10/13 02:28:44;;;;;;;20.25;11.43;;;;;;;14.01;100.00;96865.88;4968529;28;20142;-45
2022/10/13 02:31:13;;;;;;;27.38;11.82;;;;;;;13.89;100.00;96863.63;4965443;28;20075;-43
2022/10/13 02:33:42;;;;;;;14.48;11.73;;;;;;;14.15;100.00;96863.66;4970255;28;20098;-40
2022/10/13 02:36:11;;;;;;;20.95;11.48;;;;;;;13.49;100.00;96860.53;4971462;28;20085;-42
2022/10/13 02:38:39;;;;;;;15.10;10.27;;;;;;;13.34;100.00;96859.38;4966247;28;20089;-40
2022/10/13 02:41:07;;;;;;;19.35;11.70;;;;;;;13.63;100.00;96863.63;4967893;28;20109;-45
2022/10/13 02:43:37;;;;;;;18.27;12.00;;;;;;;14.10;100.00;96863.28;4967450;28;20470;-41
2022/10/13 02:46:05;;;;;;;22.02;12.02;;;;;;;13.69;100.00;96853.22;4969427;28;20086;-40
2022/10/13 02:48:34;;;;;;;23.10;11.95;;;;;;;13.74;100.00;96858.06;4967308;28;20074;-39
2022/10/13 02:51:04;;;;;;;21.00;11.15;;;;;;;14.16;100.00;96854.69;4964924;28;20082;-40
2022/10/13 02:53:32;;;;;;;36.20;12.32;;;;;;;14.25;100.00;96849.28;4969634;28;20086;-42
2022/10/13 02:56:00;;;;;;;46.92;12.50;;;;;;;14.31;100.00;96854.94;4967946;28;20086;-43
2022/10/13 02:58:29;;;;;;;57.88;13.90;;;;;;;14.02;100.00;96858.75;4964883;28;20079;-40
2022/10/13 03:01:05;;;;;;;40.38;12.20;;;;;;;13.85;100.00;96846.38;4967813;28;20085;-40
2022/10/13 03:03:33;;;;;;;46.28;12.57;;;;;;;14.06;100.00;96859.28;4969362;28;20086;-40
2022/10/13 03:06:04;;;;;;;35.85;11.88;;;;;;;14.16;100.00;96846.72;4965477;28;20087;-42
2022/10/13 03:08:33;;;;;;;26.42;10.70;;;;;;;14.05;100.00;96852.31;4974532;28;20078;-42
2022/10/13 03:11:01;;;;;;;32.08;11.27;;;;;;;14.17;100.00;96849.22;4967437;28;20124;-42
2022/10/13 03:13:29;;;;;;;32.70;11.45;;;;;;;13.89;100.00;96850.38;4966288;28;20082;-40
2022/10/13 03:15:58;;;;;;;70.70;11.93;;;;;;;13.40;100.00;96847.38;4968537;28;20083;-40
2022/10/13 03:18:26;;;;;;;85.45;13.88;;;;;;;13.08;100.00;96846.06;4966493;28;20097;-42
2022/10/13 03:20:58;;;;;;;78.65;13.73;;;;;;;13.04;100.00;96844.66;4969206;28;20161;-44
2022/10/13 03:23:28;;;;;;;58.38;12.90;;;;;;;13.48;100.00;96847.41;4959348;28;20086;-41
2022/10/13 03:25:56;;;;;;;44.40;12.67;;;;;;;13.37;100.00;96847.66;4963350;28;20102;-41
2022/10/13 03:28:25;;;;;;;58.85;13.05;;;;;;;13.49;100.00;96841.16;4965803;28;20505;-45
2022/10/13 03:30:59;;;;;;;65.70;13.43;;;;;;;13.41;100.00;96841.91;4970386;28;20100;-45
2022/10/13 03:33:28;;;;;;;76.97;13.63;;;;;;;13.13;100.00;96843.78;4963303;28;20736;-41
2022/10/13 03:35:58;;;;;;;83.05;14.27;;;;;;;12.91;100.00;96842.41;4964248;28;20089;-40
2022/10/13 03:38:28;;;;;;;61.22;12.32;;;;;;;13.21;100.00;96845.66;4966921;28;20094;-43
2022/10/13 03:40:57;;;;;;;77.80;14.45;;;;;;;13.22;100.00;96842.03;4963307;28;20086;-42
2022/10/13 03:43:25;;;;;;;52.50;13.30;;;;;;;13.17;100.00;96847.78;4966718;28;20070;-47
2022/10/13 03:45:57;;;;;;;40.42;12.57;;;;;;;13.88;100.00;96844.25;4964530;28;20544;-43
2022/10/13 03:48:26;;;;;;;60.38;12.35;;;;;;;13.03;100.00;96854.44;4965971;28;20082;-43
2022/10/13 03:50:54;;;;;;;44.50;11.85;;;;;;;13.53;100.00;96851.28;4961751;28;20071;-46
2022/10/13 03:53:23;;;;;;;13.77;11.07;;;;;;;13.84;100.00;96856.16;4962781;28;20086;-42
2022/10/13 03:55:54;;;;;;;33.42;11.25;;;;;;;13.60;100.00;96861.28;4963838;28;20121;-44
2022/10/13 03:58:24;;;;;;;38.25;11.57;;;;;;;13.45;100.00;96860.97;4960698;28;20553;-43
2022/10/13 04:00:52;;;;;;;58.30;12.32;;;;;;;12.97;100.00;96867.44;4960358;28;20093;-41
2022/10/13 04:03:21;;;;;;;33.95;12.52;;;;;;;13.79;100.00;96855.78;4965074;28;20477;-42
2022/10/13 04:05:49;;;;;;;56.13;12.63;;;;;;;13.51;100.00;96863.00;4967282;28;20093;-47
2022/10/13 04:08:17;;;;;;;49.95;11.57;;;;;;;14.07;100.00;96866.22;4959335;28;20082;-47
2022/10/13 04:10:46;;;;;;;41.92;12.35;;;;;;;13.87;100.00;96863.81;4963075;28;20082;-44
2022/10/13 04:13:15;;;;;;;43.65;13.20;;;;;;;14.06;100.00;96865.41;4960066;28;20478;-46
2022/10/13 04:15:43;;;;;;;65.88;13.43;;;;;;;14.06;100.00;96854.78;4964412;28;20766;-44
2022/10/13 04:18:12;;;;;;;60.83;14.10;;;;;;;14.35;100.00;96862.44;4962822;28;20215;-44
2022/10/13 04:20:40;;;;;;;46.42;13.43;;;;;;;14.21;100.00;96866.50;4964871;28;20078;-47
2022/10/13 04:23:08;;;;;;;98.72;15.45;;;;;;;14.04;100.00;96863.88;4964289;28;20082;-42
2022/10/13 04:25:37;;;;;;;74.53;13.52;;;;;;;14.06;100.00;96864.56;4964152;28;20082;-43
2022/10/13 04:28:07;;;;;;;106.53;14.82;;;;;;;14.01;100.00;96868.53;4957291;28;20079;-39
2022/10/13 04:30:36;;;;;;;76.30;14.40;;;;;;;14.42;100.00;96859.97;4959662;28;20490;-41
2022/10/13 04:33:05;;;;;;;94.77;14.97;;;;;;;13.66;100.00;96858.84;4963354;28;20471;-43
2022/10/13 04:35:33;;;;;;;61.25;13.98;;;;;;;14.02;100.00;96859.56;4961556;28;20078;-42
2022/10/13 04:38:01;;;;;;;63.95;14.13;;;;;;;14.47;100.00;96860.31;4960137;28;20079;-43
2022/10/13 04:40:30;;;;;;;35.10;12.93;;;;;;;14.90;100.00;96863.81;4958207;28;20079;-41
2022/10/13 04:42:58;;;;;;;48.22;13.30;;;;;;;14.24;100.00;96865.34;4965074;28;20082;-46
2022/10/13 04:45:27;;;;;;;42.60;13.95;;;;;;;14.30;100.00;96861.22;4968277;28;20090;-42
2022/10/13 04:47:57;;;;;;;59.13;13.90;;;;;;;14.66;100.00;96862.75;4960300;28;20078;-45
2022/10/13 04:50:25;;;;;;;36.57;12.63;;;;;;;15.19;100.00;96863.41;4961683;28;20117;-42
2022/10/13 04:52:53;;;;;;;49.13;13.45;;;;;;;15.19;100.00;96847.47;4962644;28;20086;-47
2022/10/13 04:55:21;;;;;;;38.85;14.10;;;;;;;14.36;100.00;96857.97;4958800;28;20483;-43
2022/10/13 04:57:50;;;;;;;27.85;14.15;;;;;;;14.44;100.00;96853.50;4961198;28;20067;-41
2022/10/13 05:00:18;;;;;;;27.85;15.15;;;;;;;15.01;100.00;96852.09;4960736;28;20091;-45
2022/10/13 05:02:46;;;;;;;20.27;13.95;;;;;;;14.62;100.00;96852.59;4968458;28;20086;-42
2022/10/13 05:05:16;;;;;;;20.60;13.30;;;;;;;14.92;100.00;96848.56;4964457;28;20114;-45
2022/10/13 05:07:44;;;;;;;17.80;12.75;;;;;;;14.88;100.00;96842.75;4962723;28;20081;-44
2022/10/13 05:10:13;;;;;;;20.50;13.57;;;;;;;15.14;100.00;96840.00;4965755;28;20537;-46
2022/10/13 05:12:42;;;;;;;19.13;14.00;;;;;;;15.30;100.00;96841.81;4960402;28;20078;-48
2022/10/13 05:15:10;;;;;;;20.42;14.07;;;;;;;15.22;100.00;96844.47;4959249;28;20512;-46
2022/10/13 05:17:39;;;;;;;21.45;13.50;;;;;;;15.43;100.00;96844.81;4961359;28;20500;-45
2022/10/13 05:20:08;;;;;;;20.50;13.90;;;;;;;15.74;100.00;96838.88;4962093;28;20461;-43
2022/10/13 05:22:38;;;;;;;22.13;14.60;;;;;;;15.48;100.00;96843.50;4956967;28;20097;-47
2022/10/13 05:25:07;;;;;;;19.23;13.95;;;;;;;15.33;100.00;96844.16;4961116;28;20098;-41
2022/10/13 05:27:35;;;;;;;19.15;13.73;;;;;;;15.73;100.00;96842.53;4962561;28;20079;-44
2022/10/13 05:30:04;;;;;;;19.92;14.32;;;;;;;15.42;100.00;96845.00;4963968;28;20086;-44
2022/10/13 05:32:34;;;;;;;21.83;14.00;;;;;;;15.55;100.00;96847.97;4958806;28;20090;-41
2022/10/13 05:35:03;;;;;;;22.48;15.13;;;;;;;15.35;100.00;96849.31;4961771;28;20082;-43
2022/10/13 05:37:31;;;;;;;19.90;14.23;;;;;;;14.52;100.00;96857.22;4964125;28;20081;-46
2022/10/13 05:40:01;;;;;;;23.42;13.85;;;;;;;15.09;100.00;96852.91;4955661;28;20083;-45
2022/10/13 05:42:29;;;;;;;19.70;13.80;;;;;;;15.14;100.00;96853.28;4956792;28;20083;-46
2022/10/13 05:44:58;;;;;;;19.95;14.35;;;;;;;15.75;100.00;96845.03;4963176;28;20089;-41
2022/10/13 05:47:27;;;;;;;22.77;14.20;;;;;;;15.88;100.00;96848.00;4969281;28;20071;-43
2022/10/13 05:49:55;;;;;;;19.23;14.70;;;;;;;15.93;100.00;96843.00;4959612;28;20075;-41
2022/10/13 05:52:24;;;;;;;21.77;14.93;;;;;;;15.24;100.00;96842.47;4967322;28;20082;-45
2022/10/13 05:54:55;;;;;;;20.42;15.18;;;;;;;16.13;100.00;96841.63;4968431;28;20474;-39
2022/10/13 05:57:27;;;;;;;17.90;14.32;;;;;;;16.36;100.00;96840.91;4958167;28;20071;-40
2022/10/13 05:59:59;;;;;;;19.35;13.13;;;;;;;15.55;100.00;96845.31;4960569;28;20093;-45
2022/10/13 06:02:33;;;;;;;105.80;56.42;;;;;;;15.85;100.00;96840.34;4965114;28;20086;-47
2022/10/13 06:05:03;;;;;;;32.33;20.00;;;;;;;15.93;100.00;96837.66;4960070;28;20087;-42
2022/10/13 06:07:31;;;;;;;26.43;18.00;;;;;;;16.24;100.00;96843.13;4961522;28;20612;-43
2022/10/13 06:10:01;;;;;;;18.95;13.77;;;;;;;16.40;100.00;96834.25;4959775;28;20102;-41
2022/10/13 06:12:30;;;;;;;18.50;13.57;;;;;;;16.68;100.00;96836.44;4961709;28;20694;-41
2022/10/13 06:14:58;;;;;;;17.45;13.45;;;;;;;16.67;100.00;96840.94;4957097;28;20078;-40
2022/10/13 06:17:27;;;;;;;17.00;13.68;;;;;;;16.25;100.00;96841.28;4959817;28;20078;-45
2022/10/13 06:19:55;;;;;;;20.35;14.23;;;;;;;16.27;100.00;96837.44;4958219;28;20077;-47
2022/10/13 06:22:23;;;;;;;18.63;13.05;;;;;;;16.57;100.00;96841.16;4960859;28;20086;-43
2022/10/13 06:24:51;;;;;;;16.60;12.98;;;;;;;16.42;100.00;96836.75;4955278;28;20086;-41
2022/10/13 06:27:20;;;;;;;18.48;14.07;;;;;;;16.61;100.00;96846.97;4958848;28;20093;-40
2022/10/13 06:29:49;;;;;;;25.30;13.68;;;;;;;16.88;100.00;96843.03;4960807;28;20074;-43
2022/10/13 06:32:18;;;;;;;17.10;12.97;;;;;;;16.99;100.00;96841.81;4961904;28;20082;-40
2022/10/13 06:34:46;;;;;;;18.05;13.70;;;;;;;16.98;100.00;96842.84;4963208;28;20078;-43
2022/10/13 06:37:15;;;;;;;17.65;13.60;;;;;;;17.17;100.00;96842.41;4970735;28;20089;-43
2022/10/13 06:39:43;;;;;;;21.02;12.45;;;;;;;16.74;100.00;96847.28;4970287;28;20501;-40
2022/10/13 06:42:11;;;;;;;18.52;12.23;;;;;;;17.09;100.00;96842.44;4965507;28;20085;-43
2022/10/13 06:44:40;;;;;;;17.00;12.07;;;;;;;16.97;100.00;96843.84;4966990;28;20066;-51
2022/10/13 06:47:09;;;;;;;14.30;11.65;;;;;;;17.01;100.00;96845.16;4966624;28;20077;-42
2022/10/13 06:49:38;;;;;;;16.63;11.07;;;;;;;17.37;100.00;96839.25;4968573;28;20132;-38
2022/10/13 06:52:06;;;;;;;14.27;11.20;;;;;;;17.52;100.00;96840.16;4967304;28;20070;-41
2022/10/13 06:54:34;;;;;;;15.38;11.10;;;;;;;17.35;100.00;96838.59;4960514;28;20082;-39
2022/10/13 06:57:05;;;;;;;14.80;11.30;;;;;;;17.88;100.00;96840.34;4964941;28;20082;-41
2022/10/13 06:59:34;;;;;;;14.70;11.95;;;;;;;17.63;100.00;96837.03;4968605;28;20078;-41
2022/10/13 07:02:02;;;;;;;18.40;11.60;;;;;;;17.02;100.00;96850.28;4967895;28;20073;-42
2022/10/13 07:04:32;;;;;;;18.92;10.75;;;;;;;17.27;100.00;96847.47;4962037;28;20080;-40
2022/10/13 07:07:01;;;;;;;16.45;10.05;;;;;;;16.98;100.00;96848.16;4961856;28;20086;-42
2022/10/13 07:09:29;;;;;;;16.13;11.07;;;;;;;17.41;100.00;96844.06;4963337;28;20101;-40
2022/10/13 07:11:57;;;;;;;17.00;10.80;;;;;;;17.39;100.00;96845.25;4964229;28;20078;-44
2022/10/13 07:14:26;;;;;;;18.92;11.15;;;;;;;17.35;100.00;96843.94;4964033;28;20093;-41
2022/10/13 07:16:54;;;;;;;19.00;11.27;;;;;;;17.31;100.00;96843.47;4961595;28;20097;-46
2022/10/13 07:19:22;;;;;;;15.85;10.65;;;;;;;17.93;100.00;96837.97;4955478;28;20058;-44
2022/10/13 07:21:53;;;;;;;18.65;10.70;;;;;;;17.52;100.00;96842.81;4957696;28;20066;-41
2022/10/13 07:24:21;;;;;;;15.55;9.90;;;;;;;18.12;100.00;96847.28;4962762;28;20725;-40
2022/10/13 07:26:49;;;;;;;14.68;10.88;;;;;;;18.22;100.00;96847.84;4961363;28;20497;-42
2022/10/13 07:29:18;;;;;;;12.27;9.43;;;;;;;18.16;100.00;96847.75;4966578;28;20091;-42
2022/10/13 07:31:46;;;;;;;15.02;10.52;;;;;;;18.34;100.00;96839.38;4964818;28;21081;-40
2022/10/13 07:34:15;;;;;;;15.40;10.55;;;;;;;18.34;100.00;96840.25;4967405;28;20074;-43
2022/10/13 07:36:44;;;;;;;13.35;10.20;;;;;;;18.59;100.00;96837.28;4965207;28;20093;-42
2022/10/13 07:39:13;;;;;;;17.67;10.77;;;;;;;18.95;100.00;96831.97;4960863;28;20078;-42
2022/10/13 07:41:42;;;;;;;18.30;11.80;;;;;;;18.93;100.00;96840.19;4964254;28;20481;-43
2022/10/13 07:44:16;;;;;;;15.00;10.57;;;;;;;18.02;100.00;96841.38;4968858;28;20532;-45
2022/10/13 07:46:44;;;;;;;13.90;10.63;;;;;;;17.03;100.00;96835.13;4964728;28;20156;-44
2022/10/13 07:49:12;;;;;;;15.55;11.00;;;;;;;17.86;100.00;96826.38;4968897;28;20138;-40
2022/10/13 07:51:44;;;;;;;14.88;11.30;;;;;;;17.22;100.00;96837.34;4965690;28;20150;-40
2022/10/13 07:54:13;;;;;;;16.30;11.15;;;;;;;17.11;100.00;96824.44;4962249;28;20089;-40
2022/10/13 07:56:41;;;;;;;15.23;11.17;;;;;;;17.39;100.00;96829.25;4966348;28;20067;-43
2022/10/13 07:59:10;;;;;;;14.57;11.73;;;;;;;18.77;100.00;96816.38;4971383;28;20077;-40
2022/10/13 08:01:39;;;;;;;18.85;14.13;;;;;;;18.97;100.00;96821.94;4968395;28;20078;-39
2022/10/13 08:04:08;;;;;;;20.20;12.40;;;;;;;19.15;100.00;96813.50;4967640;28;20517;-48
2022/10/13 08:06:36;;;;;;;14.13;11.45;;;;;;;18.89;100.00;96822.88;4966901;28;20073;-40
2022/10/13 08:09:05;;;;;;;19.55;12.23;;;;;;;19.44;100.00;96816.06;4967502;28;20079;-40
2022/10/13 08:11:35;;;;;;;12.77;10.77;;;;;;;19.03;100.00;96818.53;4959620;28;20071;-40
2022/10/13 08:14:03;;;;;;;15.65;11.68;;;;;;;19.59;100.00;96809.81;4966598;28;20109;-43
2022/10/13 08:16:32;;;;;;;14.18;10.65;;;;;;;19.86;100.00;96811.72;4963568;28;20544;-48
2022/10/13 08:19:01;;;;;;;15.32;12.43;;;;;;;19.99;100.00;96804.78;4971637;28;20051;-46
2022/10/13 08:21:29;;;;;;;14.10;11.13;;;;;;;19.80;100.00;96798.28;4969163;28;20097;-42
2022/10/13 08:24:18;;;;;;;15.10;11.23;;;;;;;20.59;100.00;96803.31;4966669;28;20473;-42
2022/10/13 08:26:48;;;;;;;18.92;11.20;;;;;;;21.08;100.00;96796.88;4966803;28;20464;-40
2022/10/13 08:29:17;;;;;;;14.85;11.25;;;;;;;20.33;100.00;96801.28;4964968;28;20086;-42
2022/10/13 08:31:51;;;;;;;17.33;11.82;;;;;;;20.29;100.00;96806.22;4965296;28;20454;-43
2022/10/13 08:34:21;;;;;;;18.42;13.27;;;;;;;21.15;100.00;96807.63;4974421;28;20059;-42
2022/10/13 08:36:51;;;;;;;21.52;14.05;;;;;;;20.31;100.00;96806.03;4963911;28;20078;-41
2022/10/13 08:39:21;;;;;;;18.98;13.05;;;;;;;20.31;100.00;96803.34;4966166;28;20086;-41
2022/10/13 08:41:51;;;;;;;17.80;13.95;;;;;;;19.79;100.00;96810.00;4966148;28;20429;-46
2022/10/13 08:44:23;;;;;;;19.73;12.88;;;;;;;20.95;100.00;96810.25;4968927;28;20078;-46
2022/10/13 08:47:17;;;;;;;20.52;11.43;;;;;;;20.89;100.00;96814.59;4964249;28;20083;-46
2022/10/13 08:49:46;;;;;;;14.65;10.80;;;;;;;20.97;100.00;96811.72;4967639;28;20533;-44
2022/10/13 08:52:18;;;;;;;16.55;12.07;;;;;;;21.01;100.00;96804.09;4967170;28;20490;-45
2022/10/13 08:54:47;;;;;;;16.17;11.32;;;;;;;21.55;100.00;96803.19;4968334;28;20081;-47
2022/10/13 08:57:17;;;;;;;18.67;12.63;;;;;;;21.82;100.00;96793.28;4965278;28;20517;-41
2022/10/13 08:59:47;;;;;;;17.80;11.88;;;;;;;21.46;100.00;96791.81;4966578;28;20132;-50
2022/10/13 09:02:22;;;;;;;17.60;12.13;;;;;;;22.32;100.00;96788.28;4962385;28;20083;-46
2022/10/13 09:04:52;;;;;;;16.35;12.70;;;;;;;22.37;100.00;96784.97;4965652;28;20086;-41
2022/10/13 09:07:23;;;;;;;20.90;13.47;;;;;;;21.04;100.00;96790.28;4967650;28;20082;-42
2022/10/13 09:09:52;;;;;;;17.92;13.50;;;;;;;22.07;100.00;96787.28;4966061;28;20074;-43
2022/10/13 09:12:26;;;;;;;21.85;15.23;;;;;;;21.31;100.00;96786.63;4957915;28;20105;-43
2022/10/13 09:15:00;;;;;;;23.67;13.60;;;;;;;22.10;100.00;96785.00;4964321;28;20074;-41
2022/10/13 09:17:29;;;;;;;20.10;15.60;;;;;;;22.31;100.00;96780.44;4966405;28;20073;-44
2022/10/13 09:19:59;;;;;;;20.48;15.68;;;;;;;22.63;100.00;96782.19;4965066;28;20078;-44
2022/10/13 09:22:29;;;;;;;26.17;18.98;;;;;;;21.60;100.00;96789.16;4968869;28;20422;-43
2022/10/13 09:25:17;;;;;;;22.95;14.88;;;;;;;22.67;100.00;96787.94;4967545;28;20089;-44
2022/10/13 09:27:49;;;;;;;36.60;26.73;;;;;;;22.26;100.00;96781.91;4966298;28;20082;-48
2022/10/13 09:30:29;;;;;;;29.60;18.67;;;;;;;23.11;100.00;96778.25;4966705;28;20077;-45
2022/10/13 09:33:17;;;;;;;24.70;15.80;;;;;;;23.28;100.00;96765.13;4964805;28;20078;-42
2022/10/13 09:35:47;;;;;;;23.52;14.82;;;;;;;23.26;100.00;96768.00;4965173;28;20066;-43
2022/10/13 09:38:18;;;;;;;27.50;15.25;;;;;;;22.98;100.00;96779.97;4967225;28;20082;-41
2022/10/13 09:40:58;;;;;;;21.20;14.95;;;;;;;23.19;100.00;96767.22;4966336;28;20079;-40
2022/10/13 09:43:31;;;;;;;20.15;14.13;;;;;;;22.90;100.00;96774.00;4966580;28;20069;-48
2022/10/13 09:46:01;;;;;;;24.48;14.07;;;;;;;22.80;100.00;96773.63;4962028;28;20144;-44
2022/10/13 09:48:31;;;;;;;18.13;13.50;;;;;;;23.96;100.00;96756.31;4966474;28;20098;-41
2022/10/13 09:50:59;;;;;;;22.92;14.88;;;;;;;24.04;100.00;96753.34;4962375;28;20050;-41
2022/10/13 09:53:31;;;;;;;23.92;17.05;;;;;;;24.51;100.00;96751.00;4966259;28;20074;-43
2022/10/13 09:56:15;;;;;;;21.50;15.48;;;;;;;23.92;100.00;96756.75;4963201;28;20051;-42
2022/10/13 09:58:48;;;;;;;24.25;14.23;;;;;;;24.27;100.00;96750.81;4964554;28;20466;-43
2022/10/13 10:01:21;;;;;;;24.40;14.55;;;;;;;25.07;96.78;96756.06;4963105;28;20101;-42
2022/10/13 10:03:50;;;;;;;19.67;13.95;;;;;;;24.50;100.00;96758.25;4964251;28;20086;-41
2022/10/13 10:06:22;;;;;;;20.10;13.20;;;;;;;24.45;100.00;96754.59;4965194;28;20070;-43
2022/10/13 10:08:58;;;;;;;20.10;14.40;;;;;;;24.68;100.00;96752.03;4961550;28;20088;-43
2022/10/13 10:11:34;;;;;;;25.23;16.13;;;;;;;24.56;100.00;96751.13;4964544;28;20069;-41
2022/10/13 10:14:14;;;;;;;23.45;13.20;;;;;;;23.43;100.00;96744.94;4965185;28;20770;-45
2022/10/13 10:16:45;;;;;;;19.95;12.70;;;;;;;23.21;100.00;96751.72;4962515;28;20077;-43
2022/10/13 10:19:18;;;;;;;19.17;12.43;;;;;;;23.16;100.00;96751.56;4963108;28;20552;-42
2022/10/13 10:21:51;;;;;;;19.50;12.13;;;;;;;24.60;98.52;96753.16;4962821;28;20063;-42
2022/10/13 10:24:24;;;;;;;18.55;12.40;;;;;;;24.16;100.00;96741.59;4962717;28;20074;-41
2022/10/13 10:26:56;;;;;;;17.92;11.55;;;;;;;23.83;88.57;96752.69;4959136;28;20127;-42
2022/10/13 10:29:30;;;;;;;18.23;12.07;;;;;;;24.77;83.58;96747.94;4960360;28;20066;-41
2022/10/13 10:32:05;;;;;;;19.02;11.23;;;;;;;23.26;100.00;96749.19;4971906;28;20063;-41
2022/10/13 10:34:39;;;;;;;17.15;11.13;;;;;;;23.41;100.00;96749.69;4964630;28;20085;-42
2022/10/13 10:37:15;;;;;;;15.93;9.85;;;;;;;22.87;100.00;96750.22;4962764;28;20070;-44
2022/10/13 10:39:56;;;;;;;20.85;11.00;;;;;;;23.90;100.00;96744.56;4962541;28;20077;-42
2022/10/13 10:43:00;;;;;;;19.98;10.65;;;;;;;24.13;86.20;96741.22;4964567;28;20086;-42
2022/10/13 10:45:33;;;;;;;19.10;9.90;;;;;;;23.39;98.77;96737.50;4959040;28;20482;-46
2022/10/13 10:48:06;;;;;;;14.70;9.15;;;;;;;23.57;90.79;96732.19;4964328;28;20089;-44
2022/10/13 10:50:34;;;;;;;20.50;10.13;;;;;;;23.19;96.99;96733.09;4964847;28;20074;-46
2022/10/13 10:53:07;;;;;;;19.83;9.82;;;;;;;24.01;82.01;96719.56;4963272;28;20086;-50
2022/10/13 10:55:39;;;;;;;14.02;9.85;;;;;;;24.42;74.54;96722.69;4964794;28;20081;-42
2022/10/13 10:58:19;;;;;;;21.05;9.95;;;;;;;23.92;79.17;96724.44;4965864;28;20147;-41
2022/10/13 11:00:54;;;;;;;17.05;9.85;;;;;;;24.09;79.94;96719.28;4979463;28;20077;-39
2022/10/13 11:03:29;;;;;;;14.63;9.02;;;;;;;22.84;86.85;96716.50;4964948;28;20070;-42
2022/10/13 11:06:01;;;;;;;18.65;10.05;;;;;;;23.72;87.00;96707.66;4960490;28;20046;-47
2022/10/13 11:08:39;;;;;;;18.80;10.38;;;;;;;24.48;74.25;96702.91;4963547;28;20070;-45
2022/10/13 11:11:37;;;;;;;17.80;10.02;;;;;;;23.85;77.10;96706.69;4964749;28;20061;-41
2022/10/13 11:14:30;;;;;;;17.63;10.70;;;;;;;24.97;67.82;96692.91;4963799;28;20469;-46
2022/10/13 11:17:10;;;;;;;16.77;10.23;;;;;;;24.93;64.26;96700.63;4964541;28;20059;-41
2022/10/13 11:19:40;;;;;;;21.15;10.43;;;;;;;25.79;58.70;96690.34;4962063;28;20078;-41
2022/10/13 11:22:13;;;;;;;16.73;9.70;;;;;;;24.37;69.20;96688.28;4962140;28;20075;-43
2022/10/13 11:24:49;;;;;;;15.50;9.25;;;;;;;25.04;67.47;96678.25;4961833;28;20078;-44
2022/10/13 11:27:27;;;;;;;16.77;10.07;;;;;;;24.49;65.46;96691.06;4962689;28;20109;-41